Tustumena — WNGW — position and weather

sailwx.info

Track history (hours):
 
Tides and Currents Weather Stations Pressure Air Temp Water Temp Dewpoint Dewpoint Depression Visibility Wind Speed Wind Dir Waves Ship Positions

Tustumena

Owner: ALASKA, STATE OF, ANCHORAGE, AK. More information available from US FCC via Universal Licensing System and Coast Guard Vessel Documentation Center.

Last reported at 2019-Feb-16 23:47 UTC. Time now 2019-Apr-24 21:58 UTC.
Position N 58°11' W 135°22'.
Warning: this ship's position is months out of date.

Type: Ship. MMSI: 303267000.

Date/timePositionNaut miles runAvg speedWind from/ knotsBaromVisibWave heightAir tempDewpointWater temp
2019-Feb-16 23:47N 58°11' W 135°22'414.4
2019-Feb-16 23:29N 58°13' W 135°29'714.3
2019-Feb-16 23:01N 58°16' W 135°40'713.5
2019-Feb-16 22:30N 58°19' W 135°52'612.2
2019-Feb-16 22:00N 58°20' W 136°04'612.0
2019-Feb-16 21:30N 58°18' W 136°15'  
2019-Feb-08 13:00N 58°24' W 151°54'4214.0 210 / 101029.0 4.0
2019-Feb-08 10:00N 59°06' W 152°00'0 0.0 140 / 201028.8 5.4 4.8
2019-Feb-07 13:00N 59°06' W 152°00'2412.1 110 / 251023.0 5.0
2019-Feb-07 11:00N 58°42' W 152°06'4214.0 220 / 81023.227.0 4.4
2019-Feb-07 08:00N 58°00' W 152°06'   200 / 151022.5 5.5
Track history (hours):
 
Tides and Currents Weather Stations Pressure Air Temp Water Temp Dewpoint Dewpoint Depression Visibility Wind Speed Wind Dir Waves Ship Positions

Tustumena

Owner: ALASKA, STATE OF, ANCHORAGE, AK. More information available from US FCC via Universal Licensing System and Coast Guard Vessel Documentation Center.

Last reported at 2019-Feb-16 23:47 UTC. Time now 2019-Apr-24 21:58 UTC.
Position N 58°11' W 135°22'.
Warning: this ship's position is months out of date.

Type: Ship. MMSI: 303267000.

Date/timePositionNaut miles runAvg speedWind from/ knotsBaromVisibWave heightAir tempDewpointWater temp
2019-Feb-16 23:47N 58°11' W 135°22'414.4
2019-Feb-16 23:29N 58°13' W 135°29'714.3
2019-Feb-16 23:01N 58°16' W 135°40'713.5
2019-Feb-16 22:30N 58°19' W 135°52'612.2
2019-Feb-16 22:00N 58°20' W 136°04'612.0
2019-Feb-16 21:30N 58°18' W 136°15'  
2019-Feb-08 13:00N 58°24' W 151°54'4214.0 210 / 101029.0 4.0
2019-Feb-08 10:00N 59°06' W 152°00'0 0.0 140 / 201028.8 5.4 4.8
2019-Feb-07 13:00N 59°06' W 152°00'2412.1 110 / 251023.0 5.0
2019-Feb-07 11:00N 58°42' W 152°06'4214.0 220 / 81023.227.0 4.4
2019-Feb-07 08:00N 58°00' W 152°06'   200 / 151022.5 5.5

Dump ship's entire track history